METAR - Iceland

Last updated 30.07.2021 - at. 21:09

SIGMET for the last six hours

No SIGMET messages last 6 hours.

METAR from the last three hours

AerodromeTimeMessage
BIAR2021-07-30 21.00METAR BIAR 302100Z 31004KT 290V350 CAVOK 15/05 Q1016
BIAR2021-07-30 20.00METAR BIAR 302000Z 34008KT CAVOK 15/04 Q1016
BIAR2021-07-30 19.00METAR BIAR 301900Z 34008KT CAVOK 16/05 Q1016
BIEG2021-07-30 21.00METAR BIEG 302100Z 01009KT 9999 FEW025 09/07 Q1015
BIEG2021-07-30 20.00METAR BIEG 302000Z 01011KT CAVOK 11/07 Q1015
BIEG2021-07-30 19.00METAR BIEG 301900Z 35014KT CAVOK 13/07 Q1015
BIKF2021-07-30 21.00METAR BIKF 302100Z 27005KT CAVOK 16/11 Q1015
BIKF2021-07-30 20.30METAR BIKF 302030Z 28003KT CAVOK 16/11 Q1015
BIKF2021-07-30 20.00METAR BIKF 302000Z 29004KT 260V320 CAVOK 16/11 Q1014
BIKF2021-07-30 19.30METAR BIKF 301930Z 30005KT CAVOK 16/11 Q1014
BIKF2021-07-30 19.00METAR BIKF 301900Z 31005KT CAVOK 16/11 Q1014
BIKF2021-07-30 18.30METAR BIKF 301830Z 31006KT 270V330 CAVOK 16/11 Q1015
BIRK2021-07-30 21.00METAR BIRK 302100Z 24002KT CAVOK 14/11 Q1014
BIRK2021-07-30 20.00METAR BIRK 302000Z 28002KT CAVOK 15/11 Q1015
BIRK2021-07-30 19.00METAR BIRK 301900Z 29004KT CAVOK 17/11 Q1015
BIVM2021-07-30 21.00METAR BIVM 302100Z 26007KT 9999 BKN060 13/12 Q1013
BIVM2021-07-30 20.00METAR BIVM 302000Z 26008KT 9999 SCT055 13/12 Q1013
BIVM2021-07-30 19.00METAR BIVM 301900Z 27007KT 9999 FEW055 13/10 Q1014





Other related web sites


This website is built with Eplica CMS